Weather at High Level Airport

Public forecast

Using degrees Celsius for public forecast. Weather courtesy of forecast.io.

Current aviation weather report (METAR) for High Level Airport

Retrieved 2021/06/15 22:12 UTC (41 minutes ago):

CYOJ 152212Z 01011G16KT 15SM TS VCSH BKN075CB BKN095 OVC230 22/12 A2971 RMK CB5AC2CS1 OCNL LTGCG S SLP066 DENSITY ALT 2500FT

Aviation forecast (TAF) for High Level Airport

Retrieved 2021/06/15 19:42 UTC (3 hours ago):

TAF CYOJ 151838Z 1519/1607 33006KT P6SM SCT090 BKN150 BKN260 TEMPO 1519/1523 P6SM -SHRA BKN090 FM152300 36006KT P6SM -RA SCT020 OVC060 TEMPO 1523/1603 4SM RA BR OVC020 FM160300 34010KT 6SM -RA BR SCT008 OVC020 TEMPO 1603/1607 3SM RA BR OVC008 RMK NXT FCST BY 160100Z